createdAt,value
2023-03-21T00:01:04.071Z,3.60
2023-03-21T00:03:32.583Z,3.78
2023-03-21T00:06:04.846Z,4.10
2023-03-21T00:08:31.846Z,4.18
2023-03-21T00:11:01.226Z,4.07
2023-03-21T00:13:33.036Z,3.75
2023-03-21T00:16:19.648Z,4.18
2023-03-21T00:18:55.400Z,3.90
2023-03-21T00:21:43.915Z,3.70
2023-03-21T00:24:16.011Z,4.10
2023-03-21T00:26:42.913Z,3.97
2023-03-21T00:29:09.780Z,3.80
2023-03-21T00:31:36.652Z,4.68
2023-03-21T00:34:03.554Z,3.80
2023-03-21T00:36:32.253Z,3.25
2023-03-21T00:39:01.141Z,3.50
2023-03-21T00:41:41.618Z,3.28
2023-03-21T00:46:45.539Z,3.65
2023-03-21T00:49:16.451Z,3.30
2023-03-21T00:51:43.966Z,3.65
2023-03-21T00:54:12.771Z,3.88
2023-03-21T00:56:39.698Z,3.30
2023-03-21T00:59:06.695Z,3.08
2023-03-21T01:01:34.842Z,3.80
2023-03-21T01:04:07.847Z,3.53
2023-03-21T01:06:41.198Z,3.22
2023-03-21T01:09:13.295Z,3.58
2023-03-21T01:11:40.430Z,3.53
2023-03-21T01:14:21.468Z,3.40
2023-03-21T01:16:51.099Z,3.47
2023-03-21T01:19:26.507Z,3.50
2023-03-21T01:21:55.644Z,3.25
2023-03-21T01:24:22.928Z,3.33
2023-03-21T01:26:49.776Z,3.55
2023-03-21T01:29:16.760Z,3.38
2023-03-21T01:31:43.793Z,3.28
2023-03-21T01:34:10.963Z,3.30
2023-03-21T01:36:38.103Z,3.28
2023-03-21T01:39:08.056Z,3.45
2023-03-21T01:41:44.026Z,3.13
2023-03-21T01:44:19.316Z,3.45
2023-03-21T01:47:11.527Z,3.03
2023-03-21T01:49:46.396Z,3.28
2023-03-21T01:52:33.499Z,3.30
2023-03-21T01:55:04.845Z,3.17
2023-03-21T01:57:43.771Z,3.58
2023-03-21T02:00:15.643Z,3.17
2023-03-21T02:02:52.167Z,2.88
2023-03-21T02:05:24.594Z,3.00
2023-03-21T02:07:53.154Z,3.00
2023-03-21T02:10:20.790Z,2.90
2023-03-21T02:12:47.931Z,3.00
2023-03-21T02:15:15.052Z,2.75
2023-03-21T02:18:17.050Z,2.78
2023-03-21T02:20:54.649Z,2.95
2023-03-21T02:23:39.811Z,2.83
2023-03-21T02:26:43.889Z,2.35
2023-03-21T02:29:42.004Z,2.33
2023-03-21T02:32:38.360Z,2.40
2023-03-21T02:35:25.522Z,2.65
2023-03-21T02:38:03.844Z,2.38
2023-03-21T02:40:37.051Z,2.58
2023-03-21T02:43:22.664Z,2.60
2023-03-21T02:45:58.377Z,2.10
2023-03-21T02:48:41.289Z,2.10
2023-03-21T02:53:53.305Z,2.08
2023-03-21T02:56:26.350Z,2.00
2023-03-21T02:58:53.991Z,2.28
2023-03-21T03:01:21.105Z,1.83
2023-03-21T03:03:48.225Z,2.20
2023-03-21T03:06:27.744Z,1.90
2023-03-21T03:09:24.352Z,2.10
2023-03-21T03:12:02.067Z,1.75
2023-03-21T03:15:02.341Z,1.80
2023-03-21T03:17:51.721Z,1.77
2023-03-21T03:20:40.050Z,1.80
2023-03-21T03:23:21.809Z,1.50
2023-03-21T03:25:58.881Z,1.60
2023-03-21T03:28:30.779Z,1.60
2023-03-21T03:31:09.063Z,1.38
2023-03-21T03:33:41.834Z,1.60
2023-03-21T03:36:21.392Z,1.40
2023-03-21T03:38:52.112Z,1.30
2023-03-21T03:41:26.228Z,1.40
2023-03-21T03:43:58.022Z,1.50
2023-03-21T03:46:24.809Z,1.50
2023-03-21T03:49:00.564Z,1.45
2023-03-21T03:51:56.349Z,1.35
2023-03-21T03:54:34.916Z,1.10
2023-03-21T03:57:01.819Z,0.98
2023-03-21T03:59:28.687Z,1.05
2023-03-21T04:01:55.811Z,0.80
2023-03-21T04:04:23.206Z,1.00
2023-03-21T04:06:53.727Z,0.80
2023-03-21T04:09:26.849Z,0.80
2023-03-21T04:12:01.242Z,0.80
2023-03-21T04:14:35.552Z,0.80
2023-03-21T04:17:09.050Z,0.93
2023-03-21T04:19:36.366Z,0.70
2023-03-21T04:22:03.197Z,0.70
2023-03-21T04:24:34.036Z,0.70
2023-03-21T04:27:01.393Z,0.88
2023-03-21T04:29:30.012Z,0.80
2023-03-21T04:31:57.087Z,0.60
2023-03-21T04:34:28.452Z,0.60
2023-03-21T04:36:56.112Z,0.80
2023-03-21T04:39:24.841Z,0.60
2023-03-21T04:41:51.942Z,0.75
2023-03-21T04:44:19.453Z,0.52
2023-03-21T04:46:46.317Z,0.60
2023-03-21T04:49:13.225Z,0.70
2023-03-21T04:51:40.687Z,0.57
2023-03-21T04:56:35.878Z,0.40
2023-03-21T04:59:07.744Z,0.47
2023-03-21T05:01:34.593Z,0.60
2023-03-21T05:04:03.789Z,0.47
2023-03-21T05:06:32.311Z,0.40
2023-03-21T05:09:01.857Z,0.50
2023-03-21T05:11:31.094Z,0.40
2023-03-21T05:14:01.568Z,0.40
2023-03-21T05:16:31.014Z,0.40
2023-03-21T05:18:59.450Z,0.35
2023-03-21T05:21:29.727Z,0.40
2023-03-21T05:23:58.587Z,0.33
2023-03-21T05:26:25.963Z,0.40
2023-03-21T05:28:52.833Z,0.40
2023-03-21T05:31:20.716Z,0.40
2023-03-21T05:33:48.475Z,0.30
2023-03-21T05:36:16.244Z,0.22
2023-03-21T05:38:45.858Z,0.20
2023-03-21T05:41:19.274Z,0.38
2023-03-21T05:43:46.284Z,0.30
2023-03-21T05:46:13.752Z,0.20
2023-03-21T05:48:40.685Z,0.30
2023-03-21T05:51:07.576Z,0.20
2023-03-21T05:53:34.545Z,0.30
2023-03-21T05:56:02.606Z,0.30
2023-03-21T05:58:29.474Z,0.65
2023-03-21T06:00:56.410Z,0.40
2023-03-21T06:03:23.263Z,0.50
2023-03-21T06:05:50.136Z,0.30
2023-03-21T06:08:17.074Z,0.30
2023-03-21T06:10:43.861Z,0.50
2023-03-21T06:13:10.802Z,0.32
2023-03-21T06:15:37.857Z,0.28
2023-03-21T06:18:04.897Z,1.00
2023-03-21T06:20:31.866Z,8.48
2023-03-21T06:22:58.827Z,13.38
2023-03-21T06:25:25.882Z,13.43
2023-03-21T06:27:52.697Z,13.20
2023-03-21T06:30:19.709Z,11.63
2023-03-21T06:32:46.742Z,11.65
2023-03-21T06:35:13.772Z,11.88
2023-03-21T06:37:40.777Z,25.10
2023-03-21T06:40:09.823Z,21.63
2023-03-21T06:42:36.979Z,18.77
2023-03-21T06:45:04.154Z,16.13
2023-03-21T06:47:31.042Z,14.95
2023-03-21T06:49:57.936Z,14.35
2023-03-21T06:52:24.848Z,12.43
2023-03-21T06:54:51.752Z,11.30
2023-03-21T06:57:21.053Z,10.35
2023-03-21T06:59:48.034Z,9.88
2023-03-21T07:02:15.454Z,8.57
2023-03-21T07:04:42.425Z,8.35
2023-03-21T07:07:09.387Z,7.45
2023-03-21T07:09:36.299Z,8.13
2023-03-21T07:12:03.272Z,2.53
2023-03-21T07:14:32.251Z,2.30
2023-03-21T07:16:59.222Z,2.13
2023-03-21T07:19:26.686Z,1.48
2023-03-21T07:21:53.744Z,2.25
2023-03-21T07:24:20.721Z,2.25
2023-03-21T07:26:47.578Z,2.30
2023-03-21T07:29:15.705Z,2.40
2023-03-21T07:31:42.923Z,2.30
2023-03-21T07:34:10.033Z,2.13
2023-03-21T07:36:37.226Z,2.80
2023-03-21T07:39:04.963Z,2.50
2023-03-21T07:41:31.948Z,2.50
2023-03-21T07:43:58.996Z,2.92
2023-03-21T07:46:26.058Z,2.17
2023-03-21T07:48:53.239Z,1.80
2023-03-21T07:51:20.110Z,1.98
2023-03-21T07:53:48.945Z,1.20
2023-03-21T07:56:16.248Z,1.60
2023-03-21T07:58:43.229Z,1.30
2023-03-21T08:01:10.229Z,1.30
2023-03-21T08:03:38.294Z,1.10
2023-03-21T08:06:05.614Z,1.45
2023-03-21T08:08:32.724Z,1.98
2023-03-21T08:11:00.221Z,1.23
2023-03-21T08:13:28.034Z,1.30
2023-03-21T08:15:55.043Z,2.00
2023-03-21T08:18:21.980Z,2.72
2023-03-21T08:20:53.567Z,1.35
2023-03-21T08:23:21.257Z,1.40
2023-03-21T08:25:53.104Z,0.80
2023-03-21T08:28:21.099Z,0.85
2023-03-21T08:30:49.104Z,0.80
2023-03-21T08:33:18.933Z,0.82
2023-03-21T08:35:46.493Z,0.50
2023-03-21T08:38:14.091Z,1.00
2023-03-21T08:40:41.816Z,0.70
2023-03-21T08:43:09.170Z,0.60
2023-03-21T08:45:36.604Z,0.47
2023-03-21T08:48:04.009Z,0.50
2023-03-21T08:50:32.155Z,0.45
2023-03-21T08:52:59.347Z,0.50
2023-03-21T08:55:26.427Z,0.38
2023-03-21T08:57:53.442Z,0.40
2023-03-21T09:00:22.276Z,0.40
2023-03-21T09:02:52.284Z,0.43
2023-03-21T09:05:19.855Z,0.30
2023-03-21T09:07:47.468Z,0.45
2023-03-21T09:10:21.571Z,0.40
2023-03-21T09:12:51.945Z,0.20
2023-03-21T09:15:22.317Z,0.30
2023-03-21T09:17:53.299Z,0.30
2023-03-21T09:22:54.642Z,0.30
2023-03-21T09:25:21.978Z,0.30
2023-03-21T09:27:49.206Z,0.20
2023-03-21T09:30:19.208Z,0.30
2023-03-21T09:32:50.777Z,0.15
2023-03-21T09:35:19.450Z,0.30
2023-03-21T09:37:48.680Z,0.30
2023-03-21T09:40:30.010Z,0.38
2023-03-21T09:43:22.294Z,0.40
2023-03-21T09:45:52.950Z,1.13
2023-03-21T09:48:53.991Z,0.50
2023-03-21T09:51:26.736Z,0.52
2023-03-21T09:53:58.075Z,0.30
2023-03-21T09:56:26.539Z,0.40
2023-03-21T09:58:59.775Z,0.35
2023-03-21T10:01:30.454Z,0.50
2023-03-21T10:04:03.809Z,0.80
2023-03-21T10:06:33.482Z,0.50
2023-03-21T10:09:14.529Z,1.50
2023-03-21T10:12:04.784Z,0.88
2023-03-21T10:15:05.758Z,0.98
2023-03-21T10:17:52.320Z,1.20
2023-03-21T10:20:22.410Z,1.13
2023-03-21T10:22:53.899Z,0.70
2023-03-21T10:25:26.697Z,1.17
2023-03-21T10:27:53.793Z,1.63
2023-03-21T10:30:40.645Z,1.30
2023-03-21T10:33:13.672Z,1.50
2023-03-21T10:35:45.925Z,2.03
2023-03-21T10:38:18.698Z,1.25
2023-03-21T10:40:46.371Z,1.02
2023-03-21T10:43:30.051Z,0.65
2023-03-21T10:45:57.703Z,0.63
2023-03-21T10:48:25.111Z,0.75
2023-03-21T10:50:55.715Z,0.60
2023-03-21T10:53:30.117Z,0.73
2023-03-21T10:56:01.110Z,0.50
2023-03-21T10:58:39.927Z,0.40
2023-03-21T11:01:15.154Z,0.68
2023-03-21T11:03:47.340Z,0.70
2023-03-21T11:06:17.206Z,1.33
2023-03-21T11:08:48.009Z,0.88
2023-03-21T11:11:42.836Z,0.47
2023-03-21T11:14:26.646Z,0.88
2023-03-21T11:16:53.883Z,0.75
2023-03-21T11:19:32.686Z,1.05
2023-03-21T11:22:09.330Z,0.70
2023-03-21T11:24:36.832Z,0.77
2023-03-21T11:27:08.423Z,0.93
2023-03-21T11:29:56.426Z,0.90
2023-03-21T11:32:36.537Z,1.88
2023-03-21T11:35:06.491Z,1.15
2023-03-21T11:37:37.936Z,1.25
2023-03-21T11:40:27.971Z,1.35
2023-03-21T11:42:56.734Z,0.55
2023-03-21T11:45:28.408Z,0.93
2023-03-21T11:47:58.061Z,0.63
2023-03-21T11:50:35.605Z,0.82
2023-03-21T11:53:13.753Z,0.75
2023-03-21T11:55:55.936Z,1.10
2023-03-21T11:58:45.156Z,1.42
2023-03-21T12:01:13.398Z,1.00
2023-03-21T12:03:48.265Z,0.70
2023-03-21T12:06:25.809Z,0.60
2023-03-21T12:09:12.831Z,0.40
2023-03-21T12:11:51.737Z,0.63
2023-03-21T12:14:21.760Z,1.05
2023-03-21T12:17:01.174Z,1.45
2023-03-21T12:19:34.006Z,1.70
2023-03-21T12:22:21.370Z,1.52
2023-03-21T12:24:55.361Z,1.33
2023-03-21T12:27:43.213Z,1.17
2023-03-21T12:30:21.130Z,1.20
2023-03-21T12:32:53.395Z,0.80
2023-03-21T12:35:32.481Z,0.70
2023-03-21T12:38:26.473Z,1.00
2023-03-21T12:40:59.090Z,0.55
2023-03-21T12:43:50.024Z,1.00
2023-03-21T12:46:44.607Z,1.20
2023-03-21T12:49:17.696Z,1.00
2023-03-21T12:51:50.402Z,0.68
2023-03-21T12:54:36.879Z,0.55
2023-03-21T12:57:19.107Z,0.50
2023-03-21T13:00:19.924Z,0.40
2023-03-21T13:02:59.362Z,0.75
2023-03-21T13:05:33.962Z,0.70
2023-03-21T13:08:15.193Z,1.10
2023-03-21T13:13:32.451Z,1.00
2023-03-21T13:16:30.687Z,1.17
2023-03-21T13:19:00.853Z,0.70
2023-03-21T13:21:36.729Z,0.63
2023-03-21T13:24:23.131Z,0.63
2023-03-21T13:27:04.372Z,1.00
2023-03-21T13:34:25.568Z,0.70
2023-03-21T13:36:53.545Z,0.52
2023-03-21T13:39:26.994Z,1.02
2023-03-21T13:41:55.143Z,1.58
2023-03-21T13:44:22.538Z,1.23
2023-03-21T13:47:01.954Z,9.68
2023-03-21T13:49:38.017Z,8.63
2023-03-21T13:52:11.095Z,3.97
2023-03-21T13:54:54.989Z,3.42
2023-03-21T13:57:44.160Z,2.65
2023-03-21T14:00:18.018Z,2.13
2023-03-21T14:02:57.891Z,1.73
2023-03-21T14:05:27.622Z,1.50
2023-03-21T14:08:12.619Z,2.10
2023-03-21T14:10:54.478Z,3.47
2023-03-21T14:13:25.596Z,1.50
2023-03-21T14:16:02.741Z,1.13
2023-03-21T14:21:24.836Z,3.63
2023-03-21T14:24:17.118Z,2.00
2023-03-21T14:26:54.413Z,0.98
2023-03-21T14:29:31.652Z,1.17
2023-03-21T14:32:01.987Z,0.90
2023-03-21T14:34:31.933Z,0.60
2023-03-21T14:36:59.458Z,0.80
2023-03-21T14:39:32.999Z,1.17
2023-03-21T14:42:05.761Z,0.85
2023-03-21T14:44:53.491Z,1.52
2023-03-21T14:47:25.020Z,0.98
2023-03-21T14:49:52.458Z,0.80
2023-03-21T14:52:31.353Z,0.90
2023-03-21T14:55:00.051Z,0.55
2023-03-21T14:57:31.307Z,0.70
2023-03-21T15:00:02.198Z,0.50
2023-03-21T15:02:36.252Z,0.50
2023-03-21T15:05:29.589Z,0.80
2023-03-21T15:08:21.322Z,0.85
2023-03-21T15:11:09.392Z,1.63
2023-03-21T15:13:55.174Z,1.17
2023-03-21T15:16:22.700Z,1.65
2023-03-21T15:18:51.108Z,1.60
2023-03-21T15:21:27.985Z,1.00
2023-03-21T15:23:59.785Z,0.73
2023-03-21T15:26:27.357Z,1.10
2023-03-21T15:28:59.627Z,0.88
2023-03-21T15:31:37.130Z,1.27
2023-03-21T15:34:05.165Z,0.90
2023-03-21T15:36:38.324Z,4.25
2023-03-21T15:39:08.930Z,3.28
2023-03-21T15:41:36.038Z,1.60
2023-03-21T15:44:12.577Z,1.00
2023-03-21T15:46:53.097Z,1.05
2023-03-21T15:49:30.295Z,1.20
2023-03-21T15:52:17.286Z,1.05
2023-03-21T15:54:48.382Z,0.82
2023-03-21T15:59:48.191Z,0.70
2023-03-21T16:02:22.102Z,0.70
2023-03-21T16:05:15.909Z,0.60
2023-03-21T16:07:47.390Z,0.40
2023-03-21T16:10:46.742Z,0.60
2023-03-21T16:13:14.291Z,0.40
2023-03-21T16:15:41.580Z,0.63
2023-03-21T16:18:11.298Z,0.50
2023-03-21T16:20:45.418Z,1.15
2023-03-21T16:23:13.966Z,1.10
2023-03-21T16:25:43.058Z,0.80
2023-03-21T16:28:16.206Z,0.90
2023-03-21T16:30:43.455Z,2.55
2023-03-21T16:33:13.830Z,0.90
2023-03-21T16:35:41.086Z,1.90
2023-03-21T16:38:09.726Z,1.27
2023-03-21T16:40:42.569Z,0.70
2023-03-21T16:43:10.964Z,0.93
2023-03-21T16:45:38.349Z,1.25
2023-03-21T16:48:05.971Z,1.25
2023-03-21T16:50:40.228Z,0.98
2023-03-21T16:53:07.520Z,1.60
2023-03-21T16:55:36.525Z,2.28
2023-03-21T16:58:04.530Z,2.95
2023-03-21T17:00:31.665Z,3.25
2023-03-21T17:03:09.191Z,2.50
2023-03-21T17:05:36.096Z,1.70
2023-03-21T17:08:04.844Z,2.22
2023-03-21T17:10:33.032Z,1.80
2023-03-21T17:13:00.269Z,2.25
2023-03-21T17:15:27.293Z,2.97
2023-03-21T17:17:56.026Z,3.08
2023-03-21T17:20:26.371Z,1.70
2023-03-21T17:22:53.605Z,2.47
2023-03-21T17:25:21.089Z,2.13
2023-03-21T17:27:48.792Z,2.05
2023-03-21T17:30:27.056Z,2.53
2023-03-21T17:32:54.846Z,2.22
2023-03-21T17:35:23.512Z,1.70
2023-03-21T17:37:51.364Z,1.60
2023-03-21T17:40:30.648Z,2.17
2023-03-21T17:42:59.117Z,2.15
2023-03-21T17:45:26.481Z,1.75
2023-03-21T17:47:55.205Z,1.58
2023-03-21T17:50:26.334Z,2.47
2023-03-21T17:55:22.620Z,0.90
2023-03-21T17:57:50.034Z,1.77
2023-03-21T18:00:23.668Z,1.15
2023-03-21T18:02:51.167Z,1.35
2023-03-21T18:05:19.085Z,1.20
2023-03-21T18:08:08.788Z,1.38
2023-03-21T18:10:33.770Z,0.70
2023-03-21T18:13:00.793Z,1.10
2023-03-21T18:15:30.042Z,0.80
2023-03-21T18:17:57.914Z,0.93
2023-03-21T18:20:49.918Z,0.98
2023-03-21T18:23:15.120Z,0.57
2023-03-21T18:25:42.300Z,0.70
2023-03-21T18:28:12.381Z,0.70
2023-03-21T18:31:07.072Z,0.50
2023-03-21T18:33:28.033Z,0.50
2023-03-21T18:35:59.297Z,0.85
2023-03-21T18:38:27.914Z,0.90
2023-03-21T18:40:56.316Z,0.70
2023-03-21T18:46:10.835Z,0.50
2023-03-21T18:48:39.383Z,0.82
2023-03-21T18:51:06.789Z,0.70
2023-03-21T18:53:34.056Z,0.60
2023-03-21T18:56:01.556Z,0.47
2023-03-21T18:58:29.605Z,0.52
2023-03-21T19:00:59.921Z,0.40
2023-03-21T19:03:36.604Z,0.70
2023-03-21T19:06:05.709Z,0.60
2023-03-21T19:08:35.011Z,0.55
2023-03-21T19:11:06.044Z,1.45
2023-03-21T19:13:35.515Z,1.13
2023-03-21T19:16:03.186Z,1.02
2023-03-21T19:21:20.267Z,0.88
2023-03-21T19:24:22.923Z,0.90
2023-03-21T19:26:34.842Z,0.80
2023-03-21T19:29:02.345Z,0.88
2023-03-21T19:31:29.887Z,0.80
2023-03-21T19:33:57.534Z,1.42
2023-03-21T19:36:26.381Z,2.75
2023-03-21T19:38:53.793Z,1.48
2023-03-21T19:41:21.572Z,1.30
2023-03-21T19:43:54.787Z,1.13
2023-03-21T19:46:25.644Z,2.13
2023-03-21T19:48:57.348Z,8.15
2023-03-21T19:51:29.116Z,4.82
2023-03-21T19:54:02.765Z,6.82
2023-03-21T19:56:31.518Z,8.50
2023-03-21T19:58:59.311Z,9.00
2023-03-21T20:01:26.649Z,8.68
2023-03-21T20:03:54.126Z,9.52
2023-03-21T20:06:23.718Z,8.32
2023-03-21T20:09:31.069Z,7.60
2023-03-21T20:11:41.380Z,7.70
2023-03-21T20:14:08.639Z,6.05
2023-03-21T20:16:37.077Z,7.15
2023-03-21T20:19:10.375Z,12.98
2023-03-21T20:21:48.558Z,12.70
2023-03-21T20:24:20.493Z,10.50
2023-03-21T20:26:49.543Z,8.88
2023-03-21T20:30:07.175Z,8.32
2023-03-21T20:32:05.024Z,7.13
2023-03-21T20:34:32.523Z,7.50
2023-03-21T20:37:00.178Z,6.35
2023-03-21T20:39:29.838Z,5.32
2023-03-21T20:41:59.389Z,4.95
2023-03-21T20:44:57.888Z,5.20
2023-03-21T20:47:14.830Z,4.70
2023-03-21T20:49:42.056Z,4.15
2023-03-21T20:55:00.028Z,4.60
2023-03-21T20:57:27.615Z,3.88
2023-03-21T20:59:56.936Z,3.53
2023-03-21T21:02:24.616Z,3.05
2023-03-21T21:05:21.897Z,2.85
2023-03-21T21:07:44.172Z,2.20
2023-03-21T21:10:14.438Z,2.17
2023-03-21T21:12:45.352Z,1.95
2023-03-21T21:15:19.691Z,1.75
2023-03-21T21:21:29.593Z,1.30
2023-03-21T21:24:43.339Z,1.75
2023-03-21T21:27:10.384Z,1.45
2023-03-21T21:29:37.820Z,1.10
2023-03-21T21:32:05.613Z,1.17
2023-03-21T21:34:33.061Z,1.02
2023-03-21T21:37:00.103Z,1.20
2023-03-21T21:39:27.942Z,1.33
2023-03-21T21:41:54.996Z,1.15
2023-03-21T21:44:22.219Z,0.90
2023-03-21T21:46:49.544Z,1.13
2023-03-21T21:49:19.821Z,0.93
2023-03-21T21:51:49.164Z,0.80
2023-03-21T21:54:18.759Z,0.75
2023-03-21T21:56:49.716Z,0.80
2023-03-21T21:59:16.823Z,0.77
2023-03-21T22:01:44.125Z,0.90
2023-03-21T22:04:15.433Z,0.85
2023-03-21T22:06:43.581Z,0.80
2023-03-21T22:09:14.326Z,0.70
2023-03-21T22:11:41.485Z,0.77
2023-03-21T22:14:09.140Z,1.45
2023-03-21T22:16:36.296Z,0.93
2023-03-21T22:19:03.562Z,1.42
2023-03-21T22:21:30.710Z,1.20
2023-03-21T22:23:57.815Z,1.00
2023-03-21T22:26:24.955Z,1.30
2023-03-21T22:28:52.324Z,1.73
2023-03-21T22:31:19.497Z,1.63
2023-03-21T22:33:49.109Z,1.63
2023-03-21T22:36:16.252Z,1.02
2023-03-21T22:38:44.214Z,1.30
2023-03-21T22:41:11.725Z,1.02
2023-03-21T22:43:39.106Z,0.85
2023-03-21T22:46:06.846Z,0.90
2023-03-21T22:48:33.820Z,0.68
2023-03-21T22:51:01.046Z,1.27
2023-03-21T22:53:29.151Z,0.73
2023-03-21T22:55:57.418Z,1.02
2023-03-21T22:58:24.343Z,0.80
2023-03-21T23:00:51.690Z,0.70
2023-03-21T23:03:18.894Z,0.70
2023-03-21T23:05:46.190Z,0.50
2023-03-21T23:08:13.887Z,0.60
2023-03-21T23:10:43.860Z,1.08
2023-03-21T23:13:11.160Z,0.63
2023-03-21T23:15:38.993Z,0.70
2023-03-21T23:18:06.077Z,0.63
2023-03-21T23:20:33.110Z,0.47
2023-03-21T23:23:00.128Z,0.80
2023-03-21T23:25:29.195Z,0.40
2023-03-21T23:27:56.387Z,0.63
2023-03-21T23:30:23.300Z,0.47
2023-03-21T23:32:50.259Z,0.50
2023-03-21T23:35:17.346Z,0.95
2023-03-21T23:37:50.337Z,0.50
2023-03-21T23:40:17.183Z,0.55
2023-03-21T23:42:44.119Z,0.50
2023-03-21T23:45:11.620Z,0.60
2023-03-21T23:47:38.467Z,0.70
2023-03-21T23:50:08.211Z,0.50
2023-03-21T23:52:35.779Z,0.60
2023-03-21T23:55:03.345Z,0.35
2023-03-21T23:57:30.627Z,0.57
2023-03-21T23:59:57.814Z,0.50
